Slough, United Kingdom
Current Conditions -  °F | °C
As of 4:50 PM on Saturday 22 Nov 2014 (Local Time) from EGLL Reporting Station
Broken Clouds Broken Clouds  
Wind Chill: 57°   Ceiling: 1200
Heat Index: 57°   Visibility: 5mi
Dew Point: 55°   Wind: 7mph
Humidity: 94%   Direction: 170°S
Pressure: 29.94"   Gusts: NA
Location:  51.51°N, 0.6°W
Report Text: EGLL 221650Z 17006KT 130V240 8000 BKN012 BKN043 14/13 Q1014 TEMPO 4000 BR BKN008
Loading
Personal Weather Stations






























Interactive Weather Map New forecast layout! Learn more

10-Day Weather Forecast

Advertisements
Track Severe Weather on mobile